Aviation Digital Data Service (ADDS)

Output produced by METARs form (0015 UTC 21 January 2019)
found at http://www.aviationweather.gov/metar/data/
 
METAR text: RJFU 210000Z VRB02KT 9999 FEW030 06/M02 Q1022
Conditions at: RJFU (NAGASAKI(CIV/JMS, JP) observed 0000 UTC 21 January 2019
Temperature: 6.0°C (43°F)
Dewpoint: -2.0°C (28°F) [RH = 56%]
Pressure (altimeter): 30.18 inches Hg (1022.0 mb)
Winds: variable direction winds at 2 MPH (2 knots; 1.0 m/s)
Visibility: 6 or more miles (10+ km)
Ceiling: at least 12,000 feet AGL
Clouds: few clouds at 3000 feet AGL
Weather: no significant weather observed at this time

METAR text: RJFU 202300Z 04005KT 9999 FEW030 04/M02 Q1022
Conditions at: RJFU (NAGASAKI(CIV/JMS, JP) observed 2300 UTC 20 January 2019
Temperature: 4.0°C (39°F)
Dewpoint: -2.0°C (28°F) [RH = 65%]
Pressure (altimeter): 30.18 inches Hg (1022.0 mb)
Winds: from the NE (40 degrees) at 6 MPH (5 knots; 2.6 m/s)
Visibility: 6 or more miles (10+ km)
Ceiling: at least 12,000 feet AGL
Clouds: few clouds at 3000 feet AGL
Weather: no significant weather observed at this time

METAR text: RJFU 202200Z 36007KT 310V040 9999 FEW030 05/M03 Q1021
Conditions at: RJFU (NAGASAKI(CIV/JMS, JP) observed 2200 UTC 20 January 2019
Temperature: 5.0°C (41°F)
Dewpoint: -3.0°C (27°F) [RH = 56%]
Pressure (altimeter): 30.15 inches Hg (1021.0 mb)
Winds: from the N (360 degrees) at 8 MPH (7 knots; 3.6 m/s)
Visibility: 6 or more miles (10+ km)
Ceiling: at least 12,000 feet AGL
Clouds: few clouds at 3000 feet AGL
Weather: no significant weather observed at this time

METAR text: RJFU 202110Z 33013KT 9999 FEW030 05/M03 Q1021 RMK 1CU030 A3015
Conditions at: RJFU (NAGASAKI(CIV/JMS, JP) observed 2110 UTC 20 January 2019
Temperature: 5.0°C (41°F)
Dewpoint: -3.0°C (27°F) [RH = 56%]
Pressure (altimeter): 30.15 inches Hg (1021.0 mb)
Winds: from the NNW (330 degrees) at 15 MPH (13 knots; 6.7 m/s)
Visibility: 6 or more miles (10+ km)
Ceiling: at least 12,000 feet AGL
Clouds: few clouds at 3000 feet AGL
Weather: no significant weather observed at this time

METAR text: RJFU 201200Z 31012KT 9999 BKN035 09/02 Q1019
Conditions at: RJFU (NAGASAKI(CIV/JMS, JP) observed 1200 UTC 20 January 2019
Temperature: 9.0°C (48°F)
Dewpoint: 2.0°C (36°F) [RH = 61%]
Pressure (altimeter): 30.09 inches Hg (1019.0 mb)
Winds: from the NW (310 degrees) at 14 MPH (12 knots; 6.2 m/s)
Visibility: 6 or more miles (10+ km)
Ceiling: 3500 feet AGL
Clouds: broken clouds at 3500 feet AGL
Weather: no significant weather observed at this time

METAR text: RJFU 201100Z 29008KT 9999 FEW035 SCT045 08/02 Q1019
Conditions at: RJFU (NAGASAKI(CIV/JMS, JP) observed 1100 UTC 20 January 2019
Temperature: 8.0°C (46°F)
Dewpoint: 2.0°C (36°F) [RH = 66%]
Pressure (altimeter): 30.09 inches Hg (1019.0 mb)
Winds: from the WNW (290 degrees) at 9 MPH (8 knots; 4.1 m/s)
Visibility: 6 or more miles (10+ km)
Ceiling: at least 12,000 feet AGL
Clouds: few clouds at 3500 feet AGL
scattered clouds at 4500 feet AGL
Weather: no significant weather observed at this time

METAR text: RJFU 201000Z 30010KT 9999 SCT035 09/02 Q1018
Conditions at: RJFU (NAGASAKI(CIV/JMS, JP) observed 1000 UTC 20 January 2019
Temperature: 9.0°C (48°F)
Dewpoint: 2.0°C (36°F) [RH = 61%]
Pressure (altimeter): 30.06 inches Hg (1018.0 mb)
Winds: from the WNW (300 degrees) at 12 MPH (10 knots; 5.1 m/s)
Visibility: 6 or more miles (10+ km)
Ceiling: at least 12,000 feet AGL
Clouds: scattered clouds at 3500 feet AGL
Weather: no significant weather observed at this time

METAR text: RJFU 200900Z 31014KT 9999 FEW040 09/03 Q1018
Conditions at: RJFU (NAGASAKI(CIV/JMS, JP) observed 0900 UTC 20 January 2019
Temperature: 9.0°C (48°F)
Dewpoint: 3.0°C (37°F) [RH = 66%]
Pressure (altimeter): 30.06 inches Hg (1018.0 mb)
Winds: from the NW (310 degrees) at 16 MPH (14 knots; 7.2 m/s)
Visibility: 6 or more miles (10+ km)
Ceiling: at least 12,000 feet AGL
Clouds: few clouds at 4000 feet AGL
Weather: no significant weather observed at this time

METAR text: RJFU 200800Z 30016KT 9999 FEW040 10/03 Q1018
Conditions at: RJFU (NAGASAKI(CIV/JMS, JP) observed 0800 UTC 20 January 2019
Temperature: 10.0°C (50°F)
Dewpoint: 3.0°C (37°F) [RH = 62%]
Pressure (altimeter): 30.06 inches Hg (1018.0 mb)
Winds: from the WNW (300 degrees) at 18 MPH (16 knots; 8.2 m/s)
Visibility: 6 or more miles (10+ km)
Ceiling: at least 12,000 feet AGL
Clouds: few clouds at 4000 feet AGL
Weather: no significant weather observed at this time

METAR text: RJFU 200700Z 30015KT 9999 FEW040 11/02 Q1017
Conditions at: RJFU (NAGASAKI(CIV/JMS, JP) observed 0700 UTC 20 January 2019
Temperature: 11.0°C (52°F)
Dewpoint: 2.0°C (36°F) [RH = 54%]
Pressure (altimeter): 30.03 inches Hg (1017.0 mb)
Winds: from the WNW (300 degrees) at 17 MPH (15 knots; 7.7 m/s)
Visibility: 6 or more miles (10+ km)
Ceiling: at least 12,000 feet AGL
Clouds: few clouds at 4000 feet AGL
Weather: no significant weather observed at this time

METAR text: RJFU 200600Z 31018KT 9999 FEW040 12/02 Q1017
Conditions at: RJFU (NAGASAKI(CIV/JMS, JP) observed 0600 UTC 20 January 2019
Temperature: 12.0°C (54°F)
Dewpoint: 2.0°C (36°F) [RH = 50%]
Pressure (altimeter): 30.03 inches Hg (1017.0 mb)
Winds: from the NW (310 degrees) at 21 MPH (18 knots; 9.3 m/s)
Visibility: 6 or more miles (10+ km)
Ceiling: at least 12,000 feet AGL
Clouds: few clouds at 4000 feet AGL
Weather: no significant weather observed at this time

METAR text: RJFU 200500Z 31020KT 9999 FEW030 SCT040 12/03 Q1017
Conditions at: RJFU (NAGASAKI(CIV/JMS, JP) observed 0500 UTC 20 January 2019
Temperature: 12.0°C (54°F)
Dewpoint: 3.0°C (37°F) [RH = 54%]
Pressure (altimeter): 30.03 inches Hg (1017.0 mb)
Winds: from the NW (310 degrees) at 23 MPH (20 knots; 10.3 m/s)
Visibility: 6 or more miles (10+ km)
Ceiling: at least 12,000 feet AGL
Clouds: few clouds at 3000 feet AGL
scattered clouds at 4000 feet AGL
Weather: no significant weather observed at this time

METAR text: RJFU 200400Z 31019KT 9999 FEW030 12/05 Q1017
Conditions at: RJFU (NAGASAKI(CIV/JMS, JP) observed 0400 UTC 20 January 2019
Temperature: 12.0°C (54°F)
Dewpoint: 5.0°C (41°F) [RH = 62%]
Pressure (altimeter): 30.03 inches Hg (1017.0 mb)
Winds: from the NW (310 degrees) at 22 MPH (19 knots; 9.8 m/s)
Visibility: 6 or more miles (10+ km)
Ceiling: at least 12,000 feet AGL
Clouds: few clouds at 3000 feet AGL
Weather: no significant weather observed at this time

METAR text: RJFU 200300Z 31018KT 9999 FEW030 SCT/// 13/05 Q1018
Conditions at: RJFU (NAGASAKI(CIV/JMS, JP) observed 0300 UTC 20 January 2019
Temperature: 13.0°C (55°F)
Dewpoint: 5.0°C (41°F) [RH = 58%]
Pressure (altimeter): 30.06 inches Hg (1018.0 mb)
Winds: from the NW (310 degrees) at 21 MPH (18 knots; 9.3 m/s)
Visibility: 6 or more miles (10+ km)
Ceiling: at least 12,000 feet AGL
Clouds: few clouds at 3000 feet AGL
Weather: no significant weather observed at this time

METAR text: RJFU 200200Z 30016KT 9999 FEW025 BKN/// 13/07 Q1017
Conditions at: RJFU (NAGASAKI(CIV/JMS, JP) observed 0200 UTC 20 January 2019
Temperature: 13.0°C (55°F)
Dewpoint: 7.0°C (45°F) [RH = 67%]
Pressure (altimeter): 30.03 inches Hg (1017.0 mb)
Winds: from the WNW (300 degrees) at 18 MPH (16 knots; 8.2 m/s)
Visibility: 6 or more miles (10+ km)
Ceiling: at least 12,000 feet AGL
Clouds: few clouds at 2500 feet AGL
Weather: no significant weather observed at this time

METAR text: RJFU 200100Z 30012KT 9999 FEW020 SCT030 BKN045 12/08 Q1018
Conditions at: RJFU (NAGASAKI(CIV/JMS, JP) observed 0100 UTC 20 January 2019
Temperature: 12.0°C (54°F)
Dewpoint: 8.0°C (46°F) [RH = 76%]
Pressure (altimeter): 30.06 inches Hg (1018.0 mb)
Winds: from the WNW (300 degrees) at 14 MPH (12 knots; 6.2 m/s)
Visibility: 6 or more miles (10+ km)
Ceiling: 4500 feet AGL
Clouds: few clouds at 2000 feet AGL
scattered clouds at 3000 feet AGL
broken clouds at 4500 feet AGL
Weather: no significant weather observed at this time

METAR text: RJFU 200000Z 31009KT 9000 FEW010 SCT015 BKN025 12/10 Q1017
Conditions at: RJFU (NAGASAKI(CIV/JMS, JP) observed 0000 UTC 20 January 2019
Temperature: 12.0°C (54°F)
Dewpoint: 10.0°C (50°F) [RH = 88%]
Pressure (altimeter): 30.03 inches Hg (1017.0 mb)
Winds: from the NW (310 degrees) at 10 MPH (9 knots; 4.6 m/s)
Visibility: 6 miles ( 9 km)
Ceiling: 2500 feet AGL
Clouds: few clouds at 1000 feet AGL
scattered clouds at 1500 feet AGL
broken clouds at 2500 feet AGL
Weather: no significant weather observed at this time

METAR text: RJFU 192341Z 31016KT 8000 -SHRA FEW010 SCT015 BKN025 12/10 Q1017 RMK 1CU010 4CU015 7CU025 A3004
Conditions at: RJFU (NAGASAKI(CIV/JMS, JP) observed 2341 UTC 19 January 2019
Temperature: 12.0°C (54°F)
Dewpoint: 10.0°C (50°F) [RH = 88%]
Pressure (altimeter): 30.03 inches Hg (1017.0 mb)
Winds: from the NW (310 degrees) at 18 MPH (16 knots; 8.2 m/s)
Visibility: 5 miles ( 8 km)
Ceiling: 2500 feet AGL
Clouds: few clouds at 1000 feet AGL
scattered clouds at 1500 feet AGL
broken clouds at 2500 feet AGL
Weather: -SHRA  (light rain showers)

METAR text: RJFU 192300Z 32006KT 7000 -SHRA FEW010 SCT015 BKN035 11/10 Q1016
Conditions at: RJFU (NAGASAKI(CIV/JMS, JP) observed 2300 UTC 19 January 2019
Temperature: 11.0°C (52°F)
Dewpoint: 10.0°C (50°F) [RH = 94%]
Pressure (altimeter): 30.00 inches Hg (1016.0 mb)
Winds: from the NW (320 degrees) at 7 MPH (6 knots; 3.1 m/s)
Visibility: 4 miles ( 7 km)
Ceiling: 3500 feet AGL
Clouds: few clouds at 1000 feet AGL
scattered clouds at 1500 feet AGL
broken clouds at 3500 feet AGL
Weather: -SHRA  (light rain showers)

METAR text: RJFU 192244Z 32008KT 5000 -SHRA BR FEW010 BKN015 BKN035 11/11 Q1016 RMK 1CU010 5CU015 7CU035 A3003
Conditions at: RJFU (NAGASAKI(CIV/JMS, JP) observed 2244 UTC 19 January 2019
Temperature: 11.0°C (52°F)
Dewpoint: 11.0°C (52°F) [RH = 100%]
Pressure (altimeter): 30.00 inches Hg (1016.0 mb)
Winds: from the NW (320 degrees) at 9 MPH (8 knots; 4.1 m/s)
Visibility: 3 miles ( 5 km)
Ceiling: 1500 feet AGL
Clouds: few clouds at 1000 feet AGL
broken clouds at 1500 feet AGL
broken clouds at 3500 feet AGL
Weather: -SHRA BR  (light rain showers, mist)

METAR text: RJFU 192223Z 32011KT 4000 -SHRA BR FEW010 BKN015 BKN025 12/11 Q1016 RMK 2CU010 6CU015 7CU025 A3002
Conditions at: RJFU (NAGASAKI(CIV/JMS, JP) observed 2223 UTC 19 January 2019
Temperature: 12.0°C (54°F)
Dewpoint: 11.0°C (52°F) [RH = 94%]
Pressure (altimeter): 30.00 inches Hg (1016.0 mb)
Winds: from the NW (320 degrees) at 13 MPH (11 knots; 5.7 m/s)
Visibility: 2.49 miles (4.01 km)
Ceiling: 1500 feet AGL
Clouds: few clouds at 1000 feet AGL
broken clouds at 1500 feet AGL
broken clouds at 2500 feet AGL
Weather: -SHRA BR  (light rain showers, mist)

METAR text: RJFU 192200Z 30014KT 7000 -SHRA FEW010 BKN015 BKN035 12/11 Q1016
Conditions at: RJFU (NAGASAKI(CIV/JMS, JP) observed 2200 UTC 19 January 2019
Temperature: 12.0°C (54°F)
Dewpoint: 11.0°C (52°F) [RH = 94%]
Pressure (altimeter): 30.00 inches Hg (1016.0 mb)
Winds: from the WNW (300 degrees) at 16 MPH (14 knots; 7.2 m/s)
Visibility: 4 miles ( 7 km)
Ceiling: 1500 feet AGL
Clouds: few clouds at 1000 feet AGL
broken clouds at 1500 feet AGL
broken clouds at 3500 feet AGL
Weather: -SHRA  (light rain showers)

METAR text: RJFU 192110Z 29010KT 6000 -SHRA FEW010 BKN015 BKN030 13/12 Q1015 RMK 2CU010 6CU015 7CU030 A2999
Conditions at: RJFU (NAGASAKI(CIV/JMS, JP) observed 2110 UTC 19 January 2019
Temperature: 13.0°C (55°F)
Dewpoint: 12.0°C (54°F) [RH = 94%]
Pressure (altimeter): 29.97 inches Hg (1015.0 mb)
Winds: from the WNW (290 degrees) at 12 MPH (10 knots; 5.1 m/s)
Visibility: 4 miles ( 6 km)
Ceiling: 1500 feet AGL
Clouds: few clouds at 1000 feet AGL
broken clouds at 1500 feet AGL
broken clouds at 3000 feet AGL
Weather: -SHRA  (light rain showers)

Forecast for: RJFU (NAGASAKI(CIV/JMS, JP)
Text: TAF RJFU 202311Z 2100/2206 34009KT 9999 FEW030
Forecast period: 0000 UTC 21 January 2019 to 0600 UTC 22 January 2019
Forecast type: FROM: standard forecast or significant change
Winds: from the NNW (340 degrees) at 10 MPH (9 knots; 4.6 m/s)
Visibility: 6 or more miles 10+ km)
Ceiling: at least 12,000 feet AGL
Clouds: few clouds at 3000 feet AGL
Weather: no significant weather forecast for this period